Terminal Aerodrome Forecast
Issued by NWS

Home | Current Version | Previous Version | Text Only | Print | Product List | Glossary On
Versions: 1 2 3 4 5 6 7 8 9 10 11 12 13 14 15 16 17 18 19 20 21 22 23 24 25 26 27 28 29 30 31 32 33 34 35 36 37 38 39 40
000
FTUS45 KBOU 252324
TAFAPA
TAF
KAPA 252324Z 2600/2624 16015KT P6SM VCSH SCT060 BKN100
      TEMPO 2600/2604 -SHRA BKN060
     FM260400 11012KT P6SM -SHRA SCT030 BKN060
      TEMPO 2604/2608 5SM -SHRA OVC030
     FM260800 15008KT P6SM VCSH SCT015 OVC030
      TEMPO 2608/2612 3SM BR SCT008 BKN015
     FM261200 11012KT 3SM -SHRA BR SCT005 OVC008
      TEMPO 2612/2616 1SM -SHRA BR OVC005
     FM261800 08014KT 3SM -SHRA BR SCT008 OVC012 PROB30 2620/2624
      5SM -TSRA BKN008CB=

USA.gov is the U.S. government's official web portal to all federal, state and local government web resources and services.